Terminal Aerodrome Forecast
Issued by NWS

Home | Current Version | Previous Version | Text Only | Print | Product List | Glossary Off
Versions: 1 2 3 4 5 6 7 8 9 10 11 12 13 14 15 16 17 18

000
FTUS43 KFGF 291741 CCA
TAFBJI
TAF COR
KBJI 291741Z 2918/3018 34014G19KT P6SM OVC012
     FM292100 34014G19KT P6SM BKN018
     FM300200 33009KT P6SM SCT025=

USA.gov is the U.S. government's official web portal to all federal, state and local government web resources and services.